• Join FlightAware (Why Join?)
  • Login
  • US Flag 
03:56AM EDT


 

Airport Tracker/Info


-or-


 

Live Flight TrackerFlight Track Log ✈ N328AJ ✈ 19-Dec-2013 ✈ KCMH - KEYW

Flight Track Log - Related Links

Times and Time Zones

All times are in EST time to prevent confusion due to time zone crossing. See the N328AJ flight status page for this flight to view local times or setup timezone preferences in your user account.

Time Position Orientation Groundspeed Altitude Reporting Facility
EST Latitude Longitude Course Direction KTS MPH feet Rate Location/Type
08:49AM 39.9872 -82.9131 170° South 188 216 1,400  Level Indianapolis Center
08:49AM 39.9481 -82.9039 170° South 190 219 2,800 1,380 Climbing Indianapolis Center
08:50AM 39.9322 -82.8903 147° Southeast 211 243 3,300 1,440 Climbing Indianapolis Center
08:50AM 39.8997 -82.8608 145° Southeast 231 266 4,300 1,800 Climbing Indianapolis Center
08:51AM 39.8708 -82.8339 144° Southeast 220 253 5,200 1,620 Climbing Indianapolis Center
08:52AM 39.8169 -82.7881 147° Southeast 227 261 6,900 1,500 Climbing Indianapolis Center
08:53AM 39.7622 -82.7514 153° Southeast 220 253 8,300 1,200 Climbing Indianapolis Center
08:54AM 39.7025 -82.7053 149° Southeast 244 281 9,400 960 Climbing Indianapolis Center
08:55AM 39.6386 -82.6589 151° Southeast 261 300 10,400 960 Climbing Indianapolis Center
08:56AM 39.5725 -82.6458 171° South 243 280 11,400 960 Climbing Indianapolis Center
08:57AM 39.5022 -82.6436 179° South 251 289 12,400 1,020 Climbing Indianapolis Center
08:58AM 39.4164 -82.6367 176° South 258 297 13,600 1,020 Climbing Indianapolis Center
08:59AM 39.3403 -82.6328 178° South 270 311 14,600 960 Climbing Indianapolis Center
09:00AM 39.2647 -82.6278 177° South 273 314 15,600 960 Climbing Indianapolis Center
09:01AM 39.1869 -82.6228 177° South 277 319 16,600 960 Climbing Indianapolis Center
09:02AM 39.1133 -82.6183 177° South 274 315 17,700 1,020 Climbing Indianapolis Center
09:03AM 39.0228 -82.6133 178° South 272 313 18,700 960 Climbing Indianapolis Center
09:04AM 38.9475 -82.6075 177° South 270 311 19,700 900 Climbing Indianapolis Center
09:05AM 38.8731 -82.6039 178° South 268 308 20,600 780 Climbing Indianapolis Center
09:06AM 38.7969 -82.5992 177° South 272 313 21,400 720 Climbing Indianapolis Center
09:07AM 38.7211 -82.5942 177° South 273 314 22,200 780 Climbing Indianapolis Center
09:08AM 38.6314 -82.5878 177° South 275 316 23,100 780 Climbing Indianapolis Center
09:09AM 38.5553 -82.5822 177° South 273 314 23,900 780 Climbing Indianapolis Center
09:11AM 38.4786 -82.5778 177° South 274 315 24,800 780 Climbing Indianapolis Center
09:12AM 38.4036 -82.5733 177° South 270 311 25,600 600 Climbing Indianapolis Center
09:13AM 38.3272 -82.5706 178° South 272 313 26,100 480 Climbing Indianapolis Center
09:14AM 38.2500 -82.5642 176° South 276 318 26,600 480 Climbing Indianapolis Center
09:15AM 38.1578 -82.5597 178° South 281 323 27,200 480 Climbing Indianapolis Center
09:16AM 38.0794 -82.5550 177° South 281 323 27,700 480 Climbing Indianapolis Center
09:17AM 37.9997 -82.5514 178° South 284 327 28,200 480 Climbing Indianapolis Center
09:18AM 37.9208 -82.5461 177° South 284 327 28,700 360 Climbing Indianapolis Center
09:19AM 37.8411 -82.5411 177° South 284 327 29,000 120 Climbing Indianapolis Center
09:20AM 37.7439 -82.5361 178° South 296 341 29,000  Level Indianapolis Center
09:21AM 37.6583 -82.5311 177° South 305 351 29,000  Level Indianapolis Center
09:22AM 37.5719 -82.5258 177° South 307 353 29,000  Level Indianapolis Center
09:23AM 37.4853 -82.5208 177° South 309 356 29,000  Level Indianapolis Center
09:24AM 37.3986 -82.5153 177° South 310 357 29,000  Level Indianapolis Center
09:25AM 37.3114 -82.5097 177° South 312 359 29,000  Level Indianapolis Center
09:26AM 37.2081 -82.5033 177° South 315 362 29,000  Level Indianapolis Center
09:27AM 37.1208 -82.4981 177° South 312 359 29,000  Level Indianapolis Center
09:28AM 37.0331 -82.4931 177° South 313 360 29,000  Level Indianapolis Center
09:29AM 36.9456 -82.4878 177° South 311 358 29,000  Level Indianapolis Center
09:30AM 36.8583 -82.4822 177° South 311 358 29,000  Level Indianapolis Center
09:31AM 36.7719 -82.4778 178° South 308 354 29,000 240 Level Indianapolis Center
09:32AM 36.6714 -82.4714 177° South 307 353 29,500 480 Climbing Indianapolis Center
09:33AM 36.5886 -82.4656 177° South 299 344 30,000 480 Climbing Indianapolis Center
09:34AM 36.5086 -82.4611 177° South 290 334 30,500 420 Climbing Indianapolis Center
09:35AM 36.4256 -82.4569 178° South 293 337 31,000 240 Climbing Atlanta Center
09:36AM 36.3464 -82.4533 178° South 287 330 31,000  Level Atlanta Center
09:37AM 36.2608 -82.4475 177° South 299 344 31,000  Level Atlanta Center
09:38AM 36.1750 -82.4439 178° South 309 356 31,000  Level Atlanta Center
09:39AM 36.0917 -82.4381 177° South 309 356 31,000  Level Atlanta Center
09:40AM 36.0039 -82.4344 178° South 309 356 31,000  Level Atlanta Center
09:41AM 35.9183 -82.4286 177° South 309 356 31,000  Level Atlanta Center
09:42AM 35.8308 -82.4253 178° South 309 356 31,000  Level Atlanta Center
09:43AM 35.7431 -82.4192 177° South 309 356 31,000  Level Atlanta Center
09:44AM 35.6533 -82.4158 178° South 304 350 31,000  Level Atlanta Center
09:45AM 35.5678 -82.4125 178° South 309 356 31,000  Level Atlanta Center
09:46AM 35.4819 -82.4064 177° South 309 356 31,000  Level Atlanta Center
09:47AM 35.3944 -82.4031 178° South 309 356 31,000  Level Atlanta Center
09:48AM 35.3067 -82.3947 176° South 309 356 31,000  Level Atlanta Center
09:49AM 35.2211 -82.3914 178° South 309 356 31,000 180 Level Atlanta Center
09:50AM 35.1375 -82.3878 178° South 309 356 31,400 360 Climbing Atlanta Center
09:51AM 35.0539 -82.3819 177° South 309 356 31,800 300 Climbing Atlanta Center
09:52AM 34.9706 -82.3761 177° South 309 356 32,000 60 Climbing Atlanta Center
09:53AM 34.8869 -82.3700 177° South 309 356 32,000  Level Atlanta Center
09:54AM 34.8056 -82.3667 178° South 309 356 32,000  Level Atlanta Center
09:55AM 34.7219 -82.3608 177° South 309 356 32,000  Level Atlanta Center
09:56AM 34.6447 -82.3597 179° South 309 356 32,000  Level Atlanta Center
09:57AM 34.5592 -82.3539 177° South 309 356 32,000  Level Atlanta Center
09:58AM 34.4756 -82.3506 178° South 309 356 32,000  Level Atlanta Center
09:59AM 34.3919 -82.3447 177° South 309 356 32,000  Level Atlanta Center
10:00AM 34.3083 -82.3389 177° South 309 356 32,000  Level Atlanta Center
10:01AM 34.2206 -82.3331 177° South 309 356 32,000  Level Atlanta Center
10:02AM 34.1392 -82.3297 178° South 309 356 32,000  Level Atlanta Center
10:03AM 34.0472 -82.3239 177° South 321 369 32,000  Level Atlanta Center
10:04AM 33.9639 -82.3206 178° South 311 358 32,000  Level Atlanta Center
10:05AM 33.8781 -82.3147 177° South 311 358 32,000  Level Atlanta Center
10:06AM 33.7947 -82.3117 178° South 302 348 32,000  Level Atlanta Center
10:07AM 33.7028 -82.3058 177° South 308 354 32,000  Level Atlanta Center
10:08AM 33.6169 -82.3025 178° South 308 354 32,000  Level Atlanta Center
10:09AM 33.5336 -82.2969 177° South 310 357 32,000  Level Atlanta Center
10:10AM 33.4500 -82.2936 178° South 305 351 32,000  Level Atlanta Center
10:12AM 33.3236 -82.2836 176° South 302 348 32,000  Level Jacksonville Center
10:13AM 33.2400 -82.2817 179° South 307 353 32,000  Level Jacksonville Center
10:14AM 33.1567 -82.2747 176° South 307 353 32,000  Level Jacksonville Center
10:15AM 33.0731 -82.2728 179° South 307 353 32,000  Level Jacksonville Center
10:16AM 32.9853 -82.2661 176° South 307 353 32,000  Level Jacksonville Center
10:17AM 32.8997 -82.2617 178° South 307 353 32,000  Level Jacksonville Center
10:18AM 32.8164 -82.2572 177° South 307 353 32,000  Level Jacksonville Center
10:19AM 32.7328 -82.2531 178° South 307 353 32,000  Level Jacksonville Center
10:20AM 32.6450 -82.2486 178° South 307 353 32,000  Level Jacksonville Center
10:21AM 32.5617 -82.2444 178° South 307 353 32,000  Level Jacksonville Center
10:22AM 32.4781 -82.2425 179° South 307 353 32,000  Level Jacksonville Center
10:23AM 32.3861 -82.2381 178° South 307 353 32,000  Level Jacksonville Center
10:24AM 32.3067 -82.2339 177° South 307 353 32,000  Level Jacksonville Center
10:25AM 32.2150 -82.2294 178° South 307 353 32,000  Level Jacksonville Center
10:26AM 32.1292 -82.2253 178° South 307 353 32,000  Level Jacksonville Center
10:27AM 32.0542 -82.2208 177° South 307 353 32,000  Level Jacksonville Center
10:28AM 31.9600 -82.2142 177° South 307 353 32,000  Level Jacksonville Center
10:29AM 31.8767 -82.2100 178° South 307 353 32,000  Level Jacksonville Center
10:30AM 31.7889 -82.2058 178° South 313 360 32,000  Level Jacksonville Center
10:31AM 31.7033 -82.2014 177° South 306 352 32,000  Level Jacksonville Center
10:32AM 31.6197 -82.1972 178° South 306 352 32,000  Level Jacksonville Center
10:33AM 31.5319 -82.1978 180° South 306 352 32,000  Level Jacksonville Center
10:34AM 31.4483 -82.1889 175° South 314 361 32,000  Level Jacksonville Center
10:35AM 31.3628 -82.1844 177° South 309 356 32,000  Level Jacksonville Center
10:36AM 31.2792 -82.1803 178° South 309 356 32,000  Level Jacksonville Center
10:37AM 31.1936 -82.1811 180° South 309 356 32,000  Level Jacksonville Center
10:38AM 31.1100 -82.1719 175° South 309 356 32,000 180 Level Jacksonville Center
10:39AM 31.0286 -82.1678 177° South 309 356 32,400 360 Climbing Jacksonville Center
10:40AM 30.9492 -82.1633 177° South 303 349 32,800 300 Climbing Jacksonville Center
10:41AM 30.8742 -82.1592 177° South 293 337 33,100 60 Climbing Jacksonville Center
10:42AM 30.7947 -82.1550 177° South 286 329 33,000 -60 Descending Jacksonville Center
10:43AM 30.7133 -82.1508 177° South 286 329 33,000  Level Jacksonville Center
10:44AM 30.6297 -82.1467 178° South 291 335 33,000  Level Jacksonville Center
10:45AM 30.5567 -82.1375 174° South 296 341 33,000  Level Jacksonville Center
10:46AM 30.4731 -82.1333 178° South 296 341 33,000  Level Jacksonville Center
10:47AM 30.3894 -82.1317 179° South 296 341 33,000  Level Jacksonville Center
10:48AM 30.2997 -82.1275 178° South 296 341 33,000  Level Jacksonville Center
10:49AM 30.2161 -82.1233 178° South 296 341 33,000  Level Jacksonville Center
10:50AM 30.1328 -82.1192 178° South 296 341 33,000  Level Jacksonville Center
10:51AM 30.0511 -82.1128 176° South 296 341 33,000  Level Jacksonville Center
10:52AM 29.9656 -82.1133 180° South 296 341 33,000  Level Jacksonville Center
10:53AM 29.8842 -82.1092 177° South 296 341 33,000  Level Jacksonville Center
10:54AM 29.7986 -82.1050 178° South 296 341 33,000  Level Jacksonville Center
10:55AM 29.7169 -82.0986 176° South 296 341 33,000  Level Jacksonville Center
10:56AM 29.6336 -82.0944 178° South 296 341 33,000  Level Jacksonville Center
10:57AM 29.5500 -82.0903 178° South 296 341 33,000  Level Jacksonville Center
10:58AM 29.4686 -82.0839 176° South 296 341 33,000  Level Jacksonville Center
10:59AM 29.3850 -82.0822 179° South 296 341 33,000  Level Jacksonville Center
11:00AM 29.3014 -82.0781 178° South 296 341 33,000  Level Jacksonville Center
11:01AM 29.2200 -82.0717 176° South 301 346 33,000  Level Jacksonville Center
11:02AM 29.1367 -82.0700 179° South 301 346 33,000  Level Jacksonville Center
11:03AM 29.0531 -82.0661 178° South 301 346 33,000  Level Jacksonville Center
11:04AM 28.9694 -82.0642 179° South 301 346 33,000  Level Jacksonville Center
11:05AM 28.8922 -82.0578 176° South 296 341 33,000  Level Jacksonville Center
11:06AM 28.8089 -82.0561 179° South 296 341 33,000  Level Jacksonville Center
11:07AM 28.7294 -82.0639 185° South 296 341 33,000  Level Jacksonville Center
11:08AM 28.6567 -82.0953 201° Southwest 284 327 33,000  Level Jacksonville Center
11:09AM 28.5839 -82.1267 201° Southwest 284 327 33,000  Level Jacksonville Center
11:10AM 28.5131 -82.1556 200° South 284 327 33,000  Level Jacksonville Center
11:11AM 28.4400 -82.1867 201° Southwest 284 327 33,000  Level Jacksonville Center
11:12AM 28.3672 -82.2178 201° Southwest 284 327 33,000  Level Jacksonville Center
11:13AM 28.2922 -82.2467 199° South 289 333 33,000  Level Jacksonville Center
11:14AM 28.2194 -82.2778 201° Southwest 289 333 33,000  Level Jacksonville Center
11:17AM 28.0306 -82.3556 200° South 291 335 33,000  Level Miami Center
11:18AM 27.9533 -82.3614 184° South 286 329 33,000  Level Miami Center
11:19AM 27.8703 -82.3456 170° South 294 338 33,000  Level Miami Center
11:20AM 27.7856 -82.3297 171° South 294 338 33,000  Level Miami Center
11:21AM 27.6983 -82.3139 171° South 307 353 33,000  Level Miami Center
11:22AM 27.6156 -82.2981 170° South 307 353 33,000  Level Miami Center
11:23AM 27.5408 -82.2853 171° South 307 353 33,000  Level Miami Center
11:24AM 27.4581 -82.2697 171° South 307 353 33,000  Level Miami Center
11:25AM 27.3689 -82.2536 171° South 307 353 33,000  Level Miami Center
11:26AM 27.2900 -82.2406 172° South 307 353 33,000  Level Miami Center
11:27AM 27.2072 -82.2253 171° South 297 342 33,000  Level Miami Center
11:28AM 27.1325 -82.2125 171° South 297 342 33,000  Level Miami Center
11:29AM 27.0517 -82.1969 170° South 297 342 33,000  Level Miami Center
11:30AM 26.9647 -82.1814 171° South 297 342 33,000  Level Miami Center
11:31AM 26.8836 -82.1683 172° South 292 336 33,000 -60 Level Miami Center
11:32AM 26.7986 -82.1528 171° South 297 342 32,900 -300 Descending Miami Center
11:33AM 26.7158 -82.1375 171° South 297 342 32,400 -540 Descending Miami Center
11:34AM 26.6286 -82.1242 172° South 307 353 31,900 -540 Descending Miami Center
11:35AM 26.5394 -82.1086 171° South 317 365 31,400 -660 Descending Miami Center
11:36AM 26.4503 -82.0908 170° South 317 365 30,600 -900 Descending Miami Center
11:37AM 26.3589 -82.0753 171° South 329 379 29,700 -900 Descending Miami Center
11:38AM 26.2678 -82.0597 171° South 334 384 28,800 -1,080 Descending Miami Center
11:39AM 26.1806 -82.0419 170° South 334 384 27,600 -1,200 Descending Miami Center
11:40AM 26.0831 -82.0261 172° South 335 386 26,400 -1,200 Descending Miami Center
11:41AM 25.9875 -82.0103 172° South 340 391 25,200 -1,080 Descending Miami Center
11:42AM 25.9044 -81.9953 171° South 345 397 24,300 -600 Descending Miami Center
11:43AM 25.8156 -81.9775 170° South 345 397 24,000 -300 Descending Miami Center
11:44AM 25.7322 -81.9650 172° South 327 376 23,800 -1,140 Descending Miami Center
11:45AM 25.6431 -81.9497 171° South 321 369 21,800 -1,980 Descending Miami Center
11:46AM 25.5475 -81.9342 172° South 333 383 19,900 -1,920 Descending Miami Center
11:47AM 25.4542 -81.9186 171° South 344 396 18,000 -1,800 Descending Miami Center
11:48AM 25.3669 -81.9011 170° South 339 390 16,400 -1,800 Descending Miami Center
11:49AM 25.2800 -81.8861 171° South 327 376 14,500 -1,920 Descending Miami Center
11:50AM 25.1967 -81.8736 172° South 317 365 12,600 -1,980 Descending Miami Center
11:51AM 25.1139 -81.8564 169° South 311 358 10,600 -1,980 Descending Miami Center
11:52AM 25.0350 -81.8439 172° South 306 352 8,700 -1,320 Descending Miami Center
11:53AM 24.9581 -81.8294 170° South 296 341 8,000 -360 Descending Miami Center
11:54AM 24.8853 -81.8197 173° South 280 322 8,000  Level Miami Center
11:55AM 24.8200 -81.8375 194° South 266 306 8,000 -300 Level Miami Center
11:56AM 24.7581 -81.8786 211° Southwest 247 284 7,500 -1,380 Descending Miami Center
11:57AM 24.6883 -81.9078 201° Southwest 259 298 5,300 -2,220 Descending Miami Center
11:58AM 24.6211 -81.9186 188° South 259 298 3,100 -1,800 Descending Miami Center
11:59AM 24.5650 -81.9117 174° South 240 276 1,700 -840 Descending Miami Center
12:00PM 24.5517 -81.8678 108° East 160 184 1,500 -360 Descending Miami Center
12:01PM 24.5531 -81.8292 88° East 120 138 1,000 -540 Descending Miami Center
12:03PM 24.5561 -81.7596 90° East  Level Estimated
12:10PM 24.5561 -81.7596 90° East  Level Estimated
12:11PM 24.5561 -81.7596 90° East  Level Estimated